Terminal Aerodrome Forecast
Issued by NWS

Home | Current Version | Previous Version | Text Only | Print | Product List | Glossary On
Versions: 1 2 3 4 5 6 7 8 9 10 11 12 13 14 15 16 17 18 19 20 21 22 23 24 25 26 27
017
FTUS45 KLKN 302320
TAFELY
TAF
KELY 302320Z 3100/3124 26015G25KT P6SM VCTS SCT035 SCT080 BKN110CB
     FM310200 19010KT P6SM VCTS BKN100CB
     FM311200 16006KT P6SM VCSH BKN110
     FM311900 25011KT P6SM VCTS BKN100CB=

USA.gov is the U.S. government's official web portal to all federal, state and local government web resources and services.